Time;durP1;ratioP1;P1;durP2;ratioP2;P2;SDS_P1;SDS_P2;PMS_P1;PMS_P2;Temp;Humidity;BMP_temperature;BMP_pressure;BME280_temperature;BME280_humidity;BME280_pressure;Samples;Min_cycle;Max_cycle;Signal;HPM_P1;HPM_P2
2021/04/04 00:01:34;;;;;;;6.07;5.35;;;;;;;5.33;73.98;94456.16;2986807;39;20067;-86
2021/04/04 00:03:35;;;;;;;5.65;4.97;;;;;;;5.25;73.42;94462.97;2995302;39;20341;-86
2021/04/04 00:05:37;;;;;;;6.00;5.40;;;;;;;5.23;73.41;94455.28;2995345;39;20043;-86
2021/04/04 00:07:39;;;;;;;6.47;5.32;;;;;;;5.36;73.45;94468.03;2995718;39;20058;-84
2021/04/04 00:09:41;;;;;;;5.22;4.55;;;;;;;5.31;72.92;94463.25;3000110;39;20104;-83
2021/04/04 00:11:42;;;;;;;6.40;5.07;;;;;;;5.17;73.73;94461.00;2977708;39;20461;-84
2021/04/04 00:13:43;;;;;;;5.97;5.07;;;;;;;5.26;73.32;94464.59;2987857;39;20068;-84
2021/04/04 00:15:44;;;;;;;5.55;4.60;;;;;;;5.37;73.89;94469.66;2978726;40;20047;-83
2021/04/04 00:17:46;;;;;;;6.10;4.90;;;;;;;5.28;73.57;94481.69;2991421;39;20075;-84
2021/04/04 00:19:47;;;;;;;6.03;5.43;;;;;;;5.26;74.28;94470.59;2993273;39;20172;-84
2021/04/04 00:21:48;;;;;;;6.93;5.65;;;;;;;5.25;74.62;94478.53;2989139;39;20059;-85
2021/04/04 00:23:50;;;;;;;7.15;5.65;;;;;;;5.31;74.07;94478.84;2978914;39;20087;-85
2021/04/04 00:25:51;;;;;;;6.03;5.28;;;;;;;5.38;73.90;94478.28;2988257;39;20082;-86
2021/04/04 00:27:52;;;;;;;6.15;4.97;;;;;;;5.40;73.81;94469.41;2978905;40;20058;-84
2021/04/04 00:29:53;;;;;;;6.10;5.25;;;;;;;5.41;73.69;94470.25;2978745;40;20489;-85
2021/04/04 00:31:55;;;;;;;5.75;5.05;;;;;;;5.42;73.87;94469.25;2978555;39;20120;-83
2021/04/04 00:33:56;;;;;;;5.35;4.55;;;;;;;5.48;73.09;94479.13;2971491;40;20045;-85
2021/04/04 00:35:57;;;;;;;5.60;4.57;;;;;;;5.51;73.15;94479.69;2989996;39;20305;-85
2021/04/04 00:38:00;;;;;;;6.47;5.28;;;;;;;5.60;73.81;94475.47;2987390;39;20052;-73
2021/04/04 00:40:04;;;;;;;7.53;5.37;;;;;;;5.62;73.54;94481.34;2974390;39;20052;-71
2021/04/04 00:42:05;;;;;;;;;;;;;;;5.64;73.19;94487.25;2975566;40;20462;-73
2021/04/04 00:44:07;;;;;;;5.82;4.85;;;;;;;5.72;72.94;94486.56;2977825;39;19936;-72
2021/04/04 00:46:08;;;;;;;5.93;4.97;;;;;;;5.62;73.19;94486.56;2968195;40;20041;-71
2021/04/04 00:48:13;;;;;;;5.75;4.72;;;;;;;5.60;74.04;94485.88;2966324;40;20056;-72
2021/04/04 00:50:16;;;;;;;5.97;5.03;;;;;;;5.53;74.01;94482.97;2964985;40;20100;-72
2021/04/04 00:52:18;;;;;;;6.68;4.80;;;;;;;5.51;73.76;94495.28;2970869;39;20500;-72
2021/04/04 00:54:19;;;;;;;6.28;5.28;;;;;;;5.54;73.87;94486.41;2974360;39;20188;-73
2021/04/04 00:56:22;;;;;;;5.88;5.00;;;;;;;5.57;73.26;94491.34;2964249;40;20151;-72
2021/04/04 00:58:23;;;;;;;5.68;4.72;;;;;;;5.61;73.64;94497.88;2966288;40;20056;-71
2021/04/04 01:00:26;;;;;;;6.05;5.07;;;;;;;5.61;73.81;94494.47;2967702;40;20502;-71
2021/04/04 01:02:27;;;;;;;5.90;5.17;;;;;;;5.64;73.39;94496.81;2967209;40;20068;-72
2021/04/04 01:04:28;;;;;;;5.57;4.85;;;;;;;5.60;73.20;94498.84;2967409;40;20391;-72
2021/04/04 01:06:30;;;;;;;5.00;4.40;;;;;;;5.65;73.92;94496.66;2966970;40;20053;-71
2021/04/04 01:08:31;;;;;;;5.80;4.60;;;;;;;5.71;73.46;94503.13;2974397;40;20073;-72
2021/04/04 01:10:35;;;;;;;4.63;4.03;;;;;;;5.80;72.22;94501.50;2966628;40;20344;-72
2021/04/04 01:12:57;;;;;;;5.53;4.78;;;;;;;5.65;72.76;94504.47;2963021;40;20057;-72
2021/04/04 01:15:04;;;;;;;4.55;3.85;;;;;;;5.53;72.23;94508.16;2965468;40;20048;-73
2021/04/04 01:17:05;;;;;;;5.93;4.70;;;;;;;5.44;72.58;94504.56;2964649;40;20068;-71
2021/04/04 01:19:15;;;;;;;4.53;4.00;;;;;;;5.43;72.28;94510.72;2961739;40;20045;-72
2021/04/04 01:21:21;;;;;;;6.30;4.15;;;;;;;5.43;72.33;94499.50;2967537;40;20091;-71
2021/04/04 01:23:39;;;;;;;5.72;3.92;;;;;;;5.35;72.80;94497.56;2960600;40;20048;-73
2021/04/04 01:26:14;;;;;;;4.90;4.32;;;;;;;5.32;73.09;94503.03;2973680;39;20950;-72
2021/04/04 01:28:25;;;;;;;4.68;3.92;;;;;;;5.42;73.70;94497.84;2944722;40;20362;-72
2021/04/04 01:30:32;;;;;;;5.47;4.43;;;;;;;5.36;72.92;94491.41;2975241;39;20078;-71
2021/04/04 01:32:35;;;;;;;5.10;4.45;;;;;;;5.34;73.46;94488.13;2963312;40;20092;-70
2021/04/04 01:34:38;;;;;;;5.22;4.25;;;;;;;5.30;73.43;94500.56;2967802;40;20313;-72
2021/04/04 01:36:39;;;;;;;4.80;4.30;;;;;;;5.32;73.23;94488.25;2966630;40;20063;-72
2021/04/04 01:38:43;;;;;;;5.30;4.60;;;;;;;5.32;72.74;94490.03;2964460;40;20389;-71
2021/04/04 01:40:46;;;;;;;5.03;4.53;;;;;;;5.26;72.45;94496.56;2968816;40;20093;-72
2021/04/04 01:42:48;;;;;;;5.05;4.20;;;;;;;5.19;73.23;94494.66;2975521;39;20044;-72
2021/04/04 01:44:50;;;;;;;6.25;4.97;;;;;;;5.23;73.39;94498.63;2977877;39;20064;-71
2021/04/04 01:46:54;;;;;;;6.30;4.82;;;;;;;5.29;72.72;94496.31;2973948;39;20076;-72
2021/04/04 01:48:56;;;;;;;6.50;5.20;;;;;;;5.26;73.33;94491.38;2969992;39;20343;-72
2021/04/04 01:50:58;;;;;;;5.93;5.03;;;;;;;5.32;72.62;94490.84;2974763;39;20141;-72
2021/04/04 01:53:00;;;;;;;6.15;5.43;;;;;;;5.17;73.25;94492.16;2981190;39;20135;-71
2021/04/04 01:55:03;;;;;;;6.22;5.45;;;;;;;5.23;73.38;94485.66;2974027;39;20052;-72
2021/04/04 01:57:05;;;;;;;5.40;4.53;;;;;;;5.22;72.65;94484.81;2974589;39;20585;-71
2021/04/04 01:59:07;;;;;;;6.25;4.78;;;;;;;5.27;72.62;94482.66;2974548;40;20520;-71
2021/04/04 02:01:10;;;;;;;6.55;5.18;;;;;;;5.35;73.41;94487.16;2982367;39;20075;-73
2021/04/04 02:03:13;;;;;;;6.38;5.50;;;;;;;5.39;72.78;94485.13;2972326;39;20324;-86
2021/04/04 02:05:15;;;;;;;6.63;5.78;;;;;;;5.40;72.38;94484.16;2979450;40;20052;-85
2021/04/04 02:07:16;;;;;;;6.65;5.97;;;;;;;5.31;71.86;94478.84;2978552;40;20310;-86
2021/04/04 02:09:18;;;;;;;7.07;6.03;;;;;;;5.26;72.23;94488.78;2987009;39;20079;-85
2021/04/04 02:11:23;;;;;;;;;;;;;;;5.30;72.53;94482.38;2987237;39;20056;-85
2021/04/04 02:13:25;;;;;;;7.85;6.55;;;;;;;5.29;73.16;94483.34;2978449;40;19936;-84
2021/04/04 02:15:29;;;;;;;7.45;6.20;;;;;;;5.33;72.49;94471.72;2977887;40;20064;-85
2021/04/04 02:17:33;;;;;;;7.15;6.25;;;;;;;5.42;72.75;94474.47;2975481;40;20414;-83
2021/04/04 02:19:34;;;;;;;7.97;7.03;;;;;;;5.41;71.73;94478.03;2982827;39;20063;-82
2021/04/04 02:21:35;;;;;;;8.43;7.38;;;;;;;5.37;72.09;94471.44;2974763;39;20056;-72
2021/04/04 02:23:37;;;;;;;9.60;7.57;;;;;;;5.32;72.48;94472.66;2962417;40;20059;-83
2021/04/04 02:25:41;;;;;;;9.10;7.43;;;;;;;5.34;73.30;94475.97;2979468;40;20052;-85
2021/04/04 02:27:43;;;;;;;9.13;7.93;;;;;;;5.30;72.70;94469.38;2979921;39;20438;-85
2021/04/04 02:29:45;;;;;;;8.85;7.85;;;;;;;5.38;73.01;94470.47;2980170;39;20056;-84
2021/04/04 02:31:55;;;;;;;9.07;8.13;;;;;;;5.34;72.53;94473.34;2979355;40;20092;-85
2021/04/04 02:33:59;;;;;;;9.07;7.80;;;;;;;5.13;72.82;94480.41;2979174;40;20059;-82
2021/04/04 02:36:04;;;;;;;10.15;8.60;;;;;;;5.06;73.75;94463.72;2969332;40;20068;-86
2021/04/04 02:38:11;;;;;;;9.77;8.48;;;;;;;5.14;73.20;94463.84;2983457;39;20059;-85
2021/04/04 02:40:13;;;;;;;12.73;8.30;;;;;;;5.20;73.14;94471.13;2986561;39;20092;-84
2021/04/04 02:42:18;;;;;;;11.00;9.27;;;;;;;5.25;72.69;94466.38;2963188;40;20049;-85
2021/04/04 02:44:19;;;;;;;11.43;8.50;;;;;;;5.20;72.92;94465.94;2971527;40;20044;-84
2021/04/04 02:46:22;;;;;;;10.20;8.82;;;;;;;5.25;72.75;94462.97;2983610;40;20024;-82
2021/04/04 02:48:34;;;;;;;9.77;8.77;;;;;;;5.22;73.12;94466.63;2979838;40;20061;-85
2021/04/04 02:50:36;;;;;;;10.50;9.40;;;;;;;5.30;73.41;94471.97;2970049;40;20128;-84
2021/04/04 02:52:39;;;;;;;11.48;9.45;;;;;;;5.24;72.19;94464.72;2969640;40;20048;-85
2021/04/04 02:54:41;;;;;;;10.93;9.05;;;;;;;5.19;72.33;94461.69;2969915;40;20056;-85
2021/04/04 02:56:45;;;;;;;10.50;9.35;;;;;;;5.05;72.63;94469.84;2969918;40;20063;-85
2021/04/04 02:58:47;;;;;;;12.23;10.15;;;;;;;5.14;72.37;94458.66;2969857;40;20080;-85
2021/04/04 03:00:49;;;;;;;11.52;9.90;;;;;;;5.06;72.96;94463.72;2969483;40;20044;-84
2021/04/04 03:02:52;;;;;;;12.90;10.52;;;;;;;5.07;73.03;94465.34;2970215;40;20072;-86
2021/04/04 03:04:54;;;;;;;13.32;10.88;;;;;;;5.18;72.91;94462.63;2973650;40;20368;-84
2021/04/04 03:06:57;;;;;;;11.85;10.48;;;;;;;5.18;73.11;94457.44;2973773;40;20087;-84
2021/04/04 03:08:58;;;;;;;14.55;12.18;;;;;;;5.16;72.57;94459.34;2973376;40;20020;-84
2021/04/04 03:11:00;;;;;;;15.13;11.48;;;;;;;5.08;73.13;94459.22;2971749;40;20045;-83
2021/04/04 03:13:02;;;;;;;22.67;16.25;;;;;;;5.07;74.08;94458.38;2964164;40;20037;-84
2021/04/04 03:15:07;;;;;;;12.90;10.73;;;;;;;5.01;73.57;94458.06;2965979;40;20037;-84
2021/04/04 03:17:09;;;;;;;12.23;10.90;;;;;;;5.06;73.24;94455.94;2971847;40;20073;-87
2021/04/04 03:19:13;;;;;;;13.82;11.10;;;;;;;5.05;72.76;94457.69;2969859;40;20071;-84
2021/04/04 03:21:15;;;;;;;;;;;;;;;5.10;73.34;94458.13;2976798;40;20060;-84
2021/04/04 03:23:17;;;;;;;14.18;11.18;;;;;;;5.09;73.30;94450.47;2971096;40;19972;-83
2021/04/04 03:25:19;;;;;;;15.27;11.88;;;;;;;5.16;73.05;94454.16;2961763;40;20052;-85
2021/04/04 03:27:21;;;;;;;15.57;11.90;;;;;;;5.01;73.76;94460.66;2961207;40;20067;-86
2021/04/04 03:29:22;;;;;;;13.55;12.02;;;;;;;5.05;73.89;94449.06;2973725;40;20133;-83
2021/04/04 03:31:23;;;;;;;16.35;12.82;;;;;;;5.05;73.44;94449.06;2978225;40;20084;-85
2021/04/04 03:33:25;;;;;;;16.92;12.30;;;;;;;5.10;73.18;94447.72;2965112;40;20081;-84
2021/04/04 03:35:28;;;;;;;14.93;12.65;;;;;;;5.06;73.59;94445.53;2962057;40;20041;-86
2021/04/04 03:37:30;;;;;;;15.25;12.93;;;;;;;4.94;73.67;94450.00;2968763;40;20024;-84
2021/04/04 03:39:32;;;;;;;16.48;13.48;;;;;;;4.98;73.34;94447.97;2969770;40;20124;-85
2021/04/04 03:41:34;;;;;;;16.05;13.38;;;;;;;4.97;73.32;94444.56;2971748;40;20421;-85
2021/04/04 03:43:36;;;;;;;14.75;12.80;;;;;;;4.93;73.80;94450.97;2984445;39;20060;-84
2021/04/04 03:45:37;;;;;;;16.85;14.00;;;;;;;5.04;73.74;94452.63;2993710;39;20063;-85
2021/04/04 03:47:39;;;;;;;15.82;13.60;;;;;;;5.05;73.79;94454.25;2981367;39;20054;-84
2021/04/04 03:49:41;;;;;;;17.00;13.35;;;;;;;5.14;73.39;94450.88;2983940;39;20056;-84
2021/04/04 03:51:43;;;;;;;17.85;14.60;;;;;;;5.18;73.41;94454.84;2979641;39;20040;-85
2021/04/04 03:53:45;;;;;;;16.50;13.00;;;;;;;5.14;73.38;94450.88;2983189;39;20056;-84
2021/04/04 03:55:52;;;;;;;15.32;13.07;;;;;;;5.21;72.93;94451.19;2988079;39;20066;-86
2021/04/04 03:57:55;;;;;;;15.25;13.48;;;;;;;5.27;72.97;94451.47;2979775;39;20063;-85
2021/04/04 03:59:57;;;;;;;16.30;13.63;;;;;;;5.30;72.27;94452.97;2986405;39;20040;-84
2021/04/04 04:01:59;;;;;;;15.35;13.00;;;;;;;5.30;72.50;94456.41;2993162;39;20067;-85
2021/04/04 04:04:00;;;;;;;17.38;13.98;;;;;;;5.23;72.36;94455.28;2984729;39;20525;-86
2021/04/04 04:06:02;;;;;;;16.20;13.57;;;;;;;5.31;72.23;94458.06;2978562;40;20028;-87
2021/04/04 04:08:04;;;;;;;16.02;13.73;;;;;;;5.24;72.08;94451.72;2979168;39;20051;-85
2021/04/04 04:10:06;;;;;;;15.88;13.88;;;;;;;5.25;72.44;94455.97;2980884;39;20032;-85
2021/04/04 04:12:07;;;;;;;15.77;13.63;;;;;;;5.21;72.28;94452.00;2983582;39;20036;-86
2021/04/04 04:14:12;;;;;;;16.40;13.93;;;;;;;5.32;72.03;94449.28;2971158;40;20071;-85
2021/04/04 04:16:15;;;;;;;19.23;14.30;;;;;;;5.32;72.15;94448.47;2978984;40;20170;-84
2021/04/04 04:18:16;;;;;;;17.27;14.20;;;;;;;5.27;71.50;94454.06;2979277;39;20024;-86
2021/04/04 04:20:18;;;;;;;16.65;13.68;;;;;;;5.21;72.07;94457.19;2980809;39;20054;-84
2021/04/04 04:22:23;;;;;;;18.38;14.27;;;;;;;5.17;72.18;94449.81;2984400;39;20292;-84
2021/04/04 04:24:25;;;;;;;16.35;13.65;;;;;;;5.11;71.88;94448.56;2970588;40;20045;-86
2021/04/04 04:26:27;;;;;;;20.20;15.43;;;;;;;5.06;72.61;94445.53;2985666;39;20051;-86
2021/04/04 04:28:29;;;;;;;17.65;15.15;;;;;;;5.21;72.20;94440.81;2974278;39;20084;-85
2021/04/04 04:30:32;;;;;;;17.73;14.63;;;;;;;5.21;72.26;94446.81;2982882;39;20096;-86
2021/04/04 04:32:36;;;;;;;17.02;14.13;;;;;;;5.27;72.01;94448.88;2979194;39;20072;-84
2021/04/04 04:34:37;;;;;;;17.05;14.93;;;;;;;5.21;71.65;94446.81;2986838;39;20108;-87
2021/04/04 04:36:39;;;;;;;18.75;15.07;;;;;;;5.22;72.11;94448.44;2978635;40;20048;-84
2021/04/04 04:38:42;;;;;;;18.13;15.10;;;;;;;5.31;72.07;94450.25;2986673;39;20159;-85
2021/04/04 04:40:43;;;;;;;15.88;14.02;;;;;;;5.32;71.36;94444.09;2978373;40;20090;-85
2021/04/04 04:42:48;;;;;;;17.67;14.63;;;;;;;5.32;72.06;94453.69;2979315;39;20059;-84
2021/04/04 04:44:49;;;;;;;16.27;14.02;;;;;;;5.30;72.09;94446.00;2989078;39;20039;-87
2021/04/04 04:46:51;;;;;;;19.55;14.88;;;;;;;5.32;71.62;94443.28;2992430;39;20452;-86
2021/04/04 04:48:52;;;;;;;24.92;15.57;;;;;;;5.25;71.98;94450.78;2974281;40;20037;-86
2021/04/04 04:50:54;;;;;;;18.52;14.77;;;;;;;5.30;72.01;94459.00;2974299;40;20371;-84
2021/04/04 04:52:58;;;;;;;19.20;14.90;;;;;;;5.40;71.85;94455.59;2965415;40;20045;-85
2021/04/04 04:54:59;;;;;;;18.80;14.35;;;;;;;5.41;71.65;94452.06;2976026;40;20080;-85
2021/04/04 04:57:01;;;;;;;21.65;15.13;;;;;;;5.43;71.43;94460.53;2980512;40;20051;-84
2021/04/04 04:59:02;;;;;;;17.30;14.80;;;;;;;5.50;70.54;94456.44;2976500;40;20056;-84
2021/04/04 05:01:07;;;;;;;18.45;15.38;;;;;;;5.46;70.84;94460.25;2974025;40;20029;-84
2021/04/04 05:03:08;;;;;;;18.63;14.80;;;;;;;5.49;71.24;94462.59;2971382;40;20058;-85
2021/04/04 05:05:11;;;;;;;18.65;15.60;;;;;;;5.49;71.21;94465.19;2971401;40;20033;-85
2021/04/04 05:07:13;;;;;;;19.83;16.47;;;;;;;5.48;71.34;94474.75;2971095;40;20052;-85
2021/04/04 05:09:15;;;;;;;17.67;14.75;;;;;;;5.44;70.83;94476.00;2969932;40;20480;-87
2021/04/04 05:11:17;;;;;;;20.38;15.55;;;;;;;5.45;71.25;94469.03;2971617;40;20037;-84
2021/04/04 05:13:19;;;;;;;17.95;15.00;;;;;;;5.40;70.78;94476.38;2977640;40;20048;-85
2021/04/04 05:15:23;;;;;;;22.00;16.02;;;;;;;5.43;70.85;94476.94;2975306;40;20056;-87
2021/04/04 05:17:25;;;;;;;19.05;14.18;;;;;;;5.40;70.66;94484.16;2974665;40;20032;-86
2021/04/04 05:19:28;;;;;;;18.33;14.15;;;;;;;5.19;70.35;94486.84;2970717;40;20506;-87
2021/04/04 05:21:30;;;;;;;18.98;14.50;;;;;;;4.79;70.99;94488.44;2962138;40;20035;-86
2021/04/04 05:23:31;;;;;;;16.70;13.57;;;;;;;4.85;72.12;94489.72;2962695;40;20052;-86
2021/04/04 05:25:33;;;;;;;16.42;13.98;;;;;;;4.77;71.83;94495.53;2970841;40;20055;-88
2021/04/04 05:27:35;;;;;;;16.52;14.05;;;;;;;4.68;72.24;94491.13;2970052;40;20040;-88
2021/04/04 05:29:36;;;;;;;17.02;13.77;;;;;;;4.75;73.00;94501.81;2970933;40;20096;-85
2021/04/04 05:31:51;;;;;;;20.63;14.27;;;;;;;4.77;73.01;94505.91;2970554;40;20064;-86
2021/04/04 05:33:52;;;;;;;18.10;14.90;;;;;;;4.75;71.74;94502.63;2970521;40;20340;-86
2021/04/04 05:35:54;;;;;;;19.02;14.27;;;;;;;4.76;72.20;94490.50;2969903;40;20066;-84
2021/04/04 05:37:55;;;;;;;17.98;14.65;;;;;;;4.77;73.34;94492.13;2970820;40;20084;-86
2021/04/04 05:39:56;;;;;;;18.33;14.95;;;;;;;4.74;72.09;94489.81;2970499;40;20076;-88
2021/04/04 05:41:59;;;;;;;17.52;14.00;;;;;;;4.70;72.88;94491.81;2978038;39;20451;-85
2021/04/04 05:44:01;;;;;;;18.63;14.23;;;;;;;4.75;72.88;94492.25;2987868;39;20072;-85
2021/04/04 05:46:07;;;;;;;19.40;15.67;;;;;;;4.83;72.92;94499.41;2979628;39;20028;-84
2021/04/04 05:48:24;;;;;;;18.95;13.88;;;;;;;4.89;71.65;94493.69;2995801;39;20051;-85
2021/04/04 05:50:44;;;;;;;16.98;14.02;;;;;;;4.94;72.24;94494.13;2972899;39;20046;-86
2021/04/04 05:52:57;;;;;;;17.73;14.10;;;;;;;4.93;72.05;94498.50;2969916;40;20033;-87
2021/04/04 05:55:02;;;;;;;17.77;14.15;;;;;;;4.94;72.05;94496.72;2981448;39;20043;-84
2021/04/04 05:57:08;;;;;;;18.67;15.85;;;;;;;4.91;72.18;94497.00;2992160;39;20068;-86
2021/04/04 05:59:12;;;;;;;22.13;15.75;;;;;;;4.90;72.25;94496.16;2991858;39;20399;-87
2021/04/04 06:01:44;;;;;;;19.92;15.57;;;;;;;4.90;72.24;94498.78;2970184;39;20040;-84
2021/04/04 06:03:55;;;;;;;19.38;16.05;;;;;;;4.93;72.26;94490.72;2984884;39;20062;-72
2021/04/04 06:06:20;;;;;;;21.05;15.02;;;;;;;4.95;72.01;94492.34;2973957;39;20072;-72
2021/04/04 06:08:21;;;;;;;;;;;;;;;4.98;72.25;94497.28;2972086;40;20108;-89
2021/04/04 06:10:55;;;;;;;18.75;14.80;;;;;;;4.97;71.95;94496.47;2988072;39;19939;-86
2021/04/04 06:13:08;;;;;;;19.17;15.27;;;;;;;5.03;71.42;94495.13;2986708;39;20152;-86
2021/04/04 06:15:33;;;;;;;19.98;15.77;;;;;;;5.11;72.17;94503.91;2978237;40;20044;-88
2021/04/04 06:17:44;;;;;;;20.27;14.75;;;;;;;5.16;72.04;94500.91;2980564;39;20025;-84
2021/04/04 06:20:13;;;;;;;21.75;16.00;;;;;;;5.21;71.35;94492.75;2983534;39;20411;-85
2021/04/04 06:22:20;;;;;;;20.15;15.25;;;;;;;5.29;70.88;94503.28;2983564;39;20047;-87
2021/04/04 06:24:43;;;;;;;21.73;16.15;;;;;;;5.36;70.40;94508.78;2978842;39;20084;-86
2021/04/04 06:27:02;;;;;;;19.45;15.00;;;;;;;5.32;70.28;94514.22;2978811;40;20072;-86
2021/04/04 06:29:08;;;;;;;19.17;15.80;;;;;;;5.30;70.96;94510.13;2981007;40;20093;-85
2021/04/04 06:31:32;;;;;;;19.83;15.73;;;;;;;5.26;70.80;94509.56;2976362;40;20057;-87
2021/04/04 06:33:45;;;;;;;19.63;15.45;;;;;;;5.27;71.54;94511.22;2994907;39;20302;-88
2021/04/04 06:36:05;;;;;;;25.67;17.65;;;;;;;5.27;70.88;94507.78;2993475;39;20047;-86
2021/04/04 06:38:37;;;;;;;22.20;17.55;;;;;;;5.38;71.55;94501.66;2987799;39;20048;-86
2021/04/04 06:40:48;;;;;;;21.80;16.90;;;;;;;5.40;70.69;94499.75;2980879;39;20090;-87
2021/04/04 06:43:00;;;;;;;21.77;16.65;;;;;;;5.38;70.88;94497.31;2986076;39;20027;-72
2021/04/04 06:45:19;;;;;;;21.08;16.90;;;;;;;5.48;70.52;94502.50;2966118;40;20044;-72
2021/04/04 06:47:59;;;;;;;22.00;17.50;;;;;;;5.54;70.81;94505.41;2985699;39;20068;-87
2021/04/04 06:50:20;;;;;;;19.75;15.85;;;;;;;5.48;70.21;94503.31;2958727;40;20053;-87
2021/04/04 06:52:43;;;;;;;23.48;17.50;;;;;;;5.46;70.70;94501.81;2945291;40;20046;-85
2021/04/04 06:55:07;;;;;;;22.35;17.63;;;;;;;5.45;71.21;94513.19;2956281;39;20709;-87
2021/04/04 06:57:33;;;;;;;21.83;15.98;;;;;;;5.42;71.33;94523.81;2986744;39;20043;-88
2021/04/04 06:59:44;;;;;;;21.25;16.15;;;;;;;5.34;71.35;94524.50;2987044;39;20039;-89
2021/04/04 07:01:59;;;;;;;19.63;15.55;;;;;;;5.33;71.74;94521.09;2987586;39;20084;-88
2021/04/04 07:04:38;;;;;;;20.15;16.00;;;;;;;5.41;71.15;94520.41;2978530;39;20113;-87
2021/04/04 07:06:53;;;;;;;21.10;16.75;;;;;;;5.54;70.94;94514.97;2987857;39;20063;-86
2021/04/04 07:08:54;;;;;;;;;;;;;;;5.55;71.81;94516.63;2988206;39;20040;-88
2021/04/04 07:11:03;;;;;;;19.50;15.35;;;;;;;5.59;71.39;94512.78;2986347;39;19963;-86
2021/04/04 07:13:33;;;;;;;17.95;15.10;;;;;;;5.55;71.06;94529.63;2980376;39;20136;-74
2021/04/04 07:16:06;;;;;;;18.92;15.90;;;;;;;5.52;71.65;94522.09;2986220;39;20417;-83
2021/04/04 07:18:55;;;;;;;17.23;14.98;;;;;;;5.37;70.01;94528.59;2988438;39;20379;-88
2021/04/04 07:21:07;;;;;;;18.45;14.48;;;;;;;5.31;70.67;94509.16;2948298;40;20054;-87
2021/04/04 07:23:30;;;;;;;16.27;13.00;;;;;;;5.46;70.82;94513.06;2986779;39;20084;-87
2021/04/04 07:25:40;;;;;;;19.13;14.70;;;;;;;5.56;70.61;94512.25;2971939;40;20040;-84
2021/04/04 07:28:02;;;;;;;17.75;14.00;;;;;;;5.63;69.97;94501.19;2984078;39;20040;-88
2021/04/04 07:30:35;;;;;;;18.70;14.68;;;;;;;5.65;70.71;94509.66;2972701;39;20084;-87
2021/04/04 07:32:48;;;;;;;17.67;14.48;;;;;;;5.71;70.16;94509.13;2988780;39;20059;-86
2021/04/04 07:34:57;;;;;;;17.77;14.95;;;;;;;5.74;70.35;94516.69;2980318;39;20420;-86
2021/04/04 07:37:19;;;;;;;17.65;14.43;;;;;;;5.78;70.01;94508.59;2988498;39;20340;-86
2021/04/04 07:39:31;;;;;;;17.27;14.23;;;;;;;5.84;70.17;94505.47;2979700;40;20135;-85
2021/04/04 07:41:42;;;;;;;17.25;13.18;;;;;;;5.89;69.77;94503.28;2963185;40;20098;-88
2021/04/04 07:43:56;;;;;;;18.30;14.00;;;;;;;5.88;70.07;94504.25;2990427;39;20034;-85
2021/04/04 07:46:10;;;;;;;18.63;14.90;;;;;;;5.81;70.04;94514.38;2983618;39;20031;-89
2021/04/04 07:48:26;;;;;;;20.00;14.48;;;;;;;5.85;70.40;94501.91;2988277;39;20077;-89
2021/04/04 07:50:32;;;;;;;18.95;15.48;;;;;;;5.80;70.57;94514.50;2982899;39;20134;-87
2021/04/04 07:52:41;;;;;;;22.10;15.98;;;;;;;5.60;71.52;94524.03;2983711;40;20322;-86
2021/04/04 07:54:56;;;;;;;25.67;19.17;;;;;;;4.79;72.35;94511.00;2984754;39;20058;-86
2021/04/04 07:57:27;;;;;;;18.40;15.88;;;;;;;4.62;73.42;94509.78;2988621;39;20055;-87
2021/04/04 07:59:32;;;;;;;25.58;19.25;;;;;;;4.79;73.62;94511.00;2972894;39;20035;-87
2021/04/04 08:01:39;;;;;;;22.48;16.88;;;;;;;4.36;74.05;94523.13;2979662;40;20057;-87
2021/04/04 08:03:52;;;;;;;23.85;17.85;;;;;;;3.93;75.41;94524.03;2988141;39;20097;-88
2021/04/04 08:06:01;;;;;;;22.37;17.30;;;;;;;4.24;75.67;94514.59;2979589;39;20035;-88
2021/04/04 08:08:05;;;;;;;22.40;15.40;;;;;;;4.45;74.27;94514.63;2988214;39;20285;-88
2021/04/04 08:10:12;;;;;;;17.58;14.43;;;;;;;4.76;73.23;94512.06;2979379;40;20098;-86
2021/04/04 08:12:35;;;;;;;17.90;14.85;;;;;;;5.08;72.11;94508.53;2978483;39;20059;-73
2021/04/04 08:14:50;;;;;;;20.70;15.25;;;;;;;5.32;70.90;94509.03;2967775;40;20052;-88
2021/04/04 08:16:56;;;;;;;18.90;15.13;;;;;;;5.34;69.67;94509.72;2979535;40;20093;-88
2021/04/04 08:18:58;;;;;;;17.73;14.07;;;;;;;5.34;70.69;94508.91;2979343;40;20080;-87
2021/04/04 08:21:11;;;;;;;26.02;20.23;;;;;;;5.55;70.14;94501.03;2993806;39;20423;-89
2021/04/04 08:23:50;;;;;;;18.52;15.45;;;;;;;5.78;70.23;94506.00;2986056;39;20080;-86
2021/04/04 08:25:56;;;;;;;23.60;18.50;;;;;;;5.90;68.86;94510.13;2989639;39;20067;-88
2021/04/04 08:28:01;;;;;;;27.55;23.17;;;;;;;5.92;68.53;94505.63;2993725;39;20028;-87
2021/04/04 08:30:18;;;;;;;22.60;17.63;;;;;;;6.01;68.89;94496.22;2978509;40;20043;-87
2021/04/04 08:32:27;;;;;;;18.65;15.75;;;;;;;5.95;68.55;94506.19;2988274;39;20344;-88
2021/04/04 08:34:39;;;;;;;21.88;18.67;;;;;;;5.83;69.42;94502.06;2987617;39;20051;-86
2021/04/04 08:36:50;;;;;;;21.17;15.25;;;;;;;5.81;69.45;94509.16;2979123;40;20068;-87
2021/04/04 08:38:56;;;;;;;19.23;15.70;;;;;;;5.71;69.24;94514.34;2989157;39;20036;-88
2021/04/04 08:40:58;;;;;;;21.15;15.98;;;;;;;5.79;69.20;94503.28;2981407;40;20051;-85
2021/04/04 08:43:04;;;;;;;24.02;16.67;;;;;;;5.80;69.14;94497.09;2977423;40;20056;-86
2021/04/04 08:45:15;;;;;;;22.92;17.20;;;;;;;5.60;69.75;94500.66;2979745;40;20065;-85
2021/04/04 08:47:36;;;;;;;22.38;15.32;;;;;;;4.85;70.82;94505.28;2977654;40;20040;-84
2021/04/04 08:49:37;;;;;;;23.35;16.80;;;;;;;4.83;72.34;94509.78;2972762;40;20032;-84
2021/04/04 08:51:41;;;;;;;19.60;15.70;;;;;;;5.03;72.48;94510.69;2971473;40;20073;-88
2021/04/04 08:53:46;;;;;;;18.60;14.02;;;;;;;5.29;71.51;94511.91;2967401;40;20055;-87
2021/04/04 08:55:48;;;;;;;18.42;14.45;;;;;;;5.52;70.83;94496.91;2971192;40;20310;-87
2021/04/04 08:57:51;;;;;;;16.88;13.65;;;;;;;5.72;70.41;94496.94;2974218;40;20052;-86
2021/04/04 08:59:54;;;;;;;16.98;13.98;;;;;;;5.83;68.66;94493.41;2976886;40;20162;-87
2021/04/04 09:02:21;;;;;;;14.70;12.48;;;;;;;5.90;68.00;94486.72;2971615;40;20055;-84
2021/04/04 09:04:24;;;;;;;16.42;13.55;;;;;;;5.92;67.96;94485.63;2973350;40;20040;-84
2021/04/04 09:06:41;;;;;;;14.93;12.80;;;;;;;5.87;68.19;94489.59;2974409;40;20036;-88
2021/04/04 09:08:43;;;;;;;16.23;13.18;;;;;;;5.89;67.49;94477.28;2971930;40;20048;-87
2021/04/04 09:10:45;;;;;;;18.63;13.73;;;;;;;5.94;68.69;94478.56;2971329;40;20080;-86
2021/04/04 09:12:47;;;;;;;18.77;14.63;;;;;;;6.06;68.58;94471.41;2970892;40;20061;-87
2021/04/04 09:14:49;;;;;;;15.90;13.63;;;;;;;6.13;68.23;94480.34;2978863;40;20040;-86
2021/04/04 09:16:52;;;;;;;15.90;13.38;;;;;;;6.13;68.46;94477.75;2965368;40;20041;-87
2021/04/04 09:18:53;;;;;;;16.90;13.53;;;;;;;6.11;69.17;94476.25;2970947;40;20031;-88
2021/04/04 09:21:05;;;;;;;16.45;13.68;;;;;;;6.20;67.64;94474.59;2971714;40;20111;-88
2021/04/04 09:23:07;;;;;;;16.00;13.85;;;;;;;6.27;68.30;94470.47;2973447;40;20039;-86
2021/04/04 09:25:09;;;;;;;15.45;12.68;;;;;;;6.24;67.40;94466.38;2973138;40;20035;-87
2021/04/04 09:27:12;;;;;;;16.67;13.27;;;;;;;6.30;67.89;94470.19;2971637;40;20067;-86
2021/04/04 09:29:14;;;;;;;16.17;13.25;;;;;;;6.29;68.39;94463.34;2971384;40;20035;-85
2021/04/04 09:31:20;;;;;;;15.75;13.38;;;;;;;6.26;67.77;94463.59;2971833;40;20081;-84
2021/04/04 09:33:26;;;;;;;14.98;12.52;;;;;;;6.33;67.12;94473.34;2966508;40;20170;-88
2021/04/04 09:35:29;;;;;;;15.48;12.20;;;;;;;6.46;66.91;94472.22;2962740;40;20321;-86
2021/04/04 09:37:30;;;;;;;13.85;12.07;;;;;;;6.49;66.75;94467.56;2965044;40;20043;-85
2021/04/04 09:39:32;;;;;;;12.65;11.30;;;;;;;6.38;66.06;94472.91;2970836;40;20450;-87
2021/04/04 09:41:34;;;;;;;16.63;12.88;;;;;;;6.34;66.49;94464.56;2964283;40;20057;-88
2021/04/04 09:43:40;;;;;;;16.77;10.95;;;;;;;6.33;66.92;94465.53;2970139;40;20114;-86
2021/04/04 09:45:42;;;;;;;14.65;11.50;;;;;;;6.29;67.19;94466.75;2972271;39;20039;-87
2021/04/04 09:47:45;;;;;;;14.45;10.93;;;;;;;6.37;66.07;94471.28;2979805;39;20481;-87
2021/04/04 09:49:50;;;;;;;13.73;11.25;;;;;;;6.22;67.35;94470.06;2979707;39;20047;-87
2021/04/04 09:51:51;;;;;;;16.85;12.98;;;;;;;6.11;67.39;94471.03;2979217;40;20411;-86
2021/04/04 09:53:53;;;;;;;17.60;14.15;;;;;;;5.29;70.59;94498.06;2974762;39;20428;-88
2021/04/04 09:56:13;;;;;;;18.83;14.65;;;;;;;4.61;72.62;94495.19;2970694;40;20060;-86